createdAt,value
2018-11-26T00:00:55.480Z,89.04
2018-11-26T00:01:55.494Z,89.09
2018-11-26T00:02:55.516Z,88.76
2018-11-26T00:03:55.522Z,88.57
2018-11-26T00:04:55.532Z,89.04
2018-11-26T00:05:55.545Z,89.04
2018-11-26T00:06:55.553Z,88.85
2018-11-26T00:07:55.572Z,89.04
2018-11-26T00:08:55.577Z,88.95
2018-11-26T00:09:55.592Z,89.90
2018-11-26T00:10:55.607Z,89.71
2018-11-26T00:11:55.616Z,89.52
2018-11-26T00:12:55.631Z,88.85
2018-11-26T00:13:55.641Z,88.85
2018-11-26T00:14:55.657Z,89.80
2018-11-26T00:15:55.669Z,89.04
2018-11-26T00:16:55.672Z,89.80
2018-11-26T00:17:55.690Z,89.71
2018-11-26T00:18:55.707Z,89.61
2018-11-26T00:19:55.715Z,89.61
2018-11-26T00:20:55.726Z,89.80
2018-11-26T00:21:55.744Z,89.61
2018-11-26T00:22:55.755Z,89.71
2018-11-26T00:23:55.767Z,89.04
2018-11-26T00:24:55.782Z,89.14
2018-11-26T00:25:55.794Z,89.23
2018-11-26T00:26:55.804Z,88.95
2018-11-26T00:27:55.816Z,89.52
2018-11-26T00:28:55.833Z,89.80
2018-11-26T00:29:55.836Z,89.90
2018-11-26T00:30:55.849Z,89.61
2018-11-26T00:31:55.862Z,90.19
2018-11-26T00:32:55.877Z,89.61
2018-11-26T00:33:55.893Z,89.80
2018-11-26T00:34:55.903Z,89.80
2018-11-26T00:35:55.914Z,89.71
2018-11-26T00:36:55.929Z,90.00
2018-11-26T00:37:55.939Z,89.80
2018-11-26T00:38:55.949Z,89.71
2018-11-26T00:39:55.960Z,89.42
2018-11-26T00:40:55.976Z,89.61
2018-11-26T00:41:55.982Z,89.80
2018-11-26T00:42:55.997Z,89.80
2018-11-26T00:43:56.011Z,90.00
2018-11-26T00:44:56.027Z,89.90
2018-11-26T00:45:56.028Z,90.19
2018-11-26T00:46:56.048Z,90.19
2018-11-26T00:47:56.061Z,90.28
2018-11-26T00:48:56.073Z,90.37
2018-11-26T00:49:56.084Z,89.80
2018-11-26T00:50:56.099Z,90.66
2018-11-26T00:51:56.112Z,90.37
2018-11-26T00:52:56.124Z,90.37
2018-11-26T00:53:56.134Z,90.28
2018-11-26T00:54:56.142Z,90.19
2018-11-26T00:55:56.159Z,90.47
2018-11-26T00:56:56.172Z,90.56
2018-11-26T00:57:56.185Z,90.56
2018-11-26T00:58:56.195Z,90.00
2018-11-26T00:59:56.261Z,90.28
2018-11-26T01:00:56.221Z,89.90
2018-11-26T01:01:56.229Z,89.80
2018-11-26T01:02:56.241Z,89.52
2018-11-26T01:03:56.255Z,89.90
2018-11-26T01:04:56.267Z,90.00
2018-11-26T01:05:56.278Z,89.90
2018-11-26T01:06:56.290Z,89.90
2018-11-26T01:07:56.304Z,89.90
2018-11-26T01:08:56.314Z,89.61
2018-11-26T01:09:56.330Z,89.61
2018-11-26T01:10:56.339Z,89.61
2018-11-26T01:11:56.537Z,89.80
2018-11-26T01:12:56.370Z,90.00
2018-11-26T01:13:56.380Z,89.52
2018-11-26T01:14:56.405Z,89.80
2018-11-26T01:15:56.403Z,89.90
2018-11-26T01:16:56.417Z,89.71
2018-11-26T01:17:56.437Z,89.52
2018-11-26T01:18:56.441Z,89.52
2018-11-26T01:19:56.455Z,89.61
2018-11-26T01:20:56.461Z,89.52
2018-11-26T01:21:56.477Z,89.80
2018-11-26T01:22:56.494Z,90.09
2018-11-26T01:23:56.497Z,89.80
2018-11-26T01:24:56.511Z,89.90
2018-11-26T01:25:56.537Z,89.61
2018-11-26T01:26:56.541Z,89.61
2018-11-26T01:27:56.551Z,89.80
2018-11-26T01:28:56.566Z,89.90
2018-11-26T01:29:56.576Z,89.61
2018-11-26T01:30:56.601Z,89.71
2018-11-26T01:31:56.605Z,89.80
2018-11-26T01:32:56.611Z,89.80
2018-11-26T01:33:56.627Z,89.71
2018-11-26T01:34:56.638Z,89.71
2018-11-26T01:35:56.645Z,89.80
2018-11-26T01:36:56.671Z,89.90
2018-11-26T01:37:56.662Z,89.90
2018-11-26T01:38:56.693Z,90.00
2018-11-26T01:39:56.703Z,89.80
2018-11-26T01:40:56.717Z,90.19
2018-11-26T01:41:56.733Z,90.19
2018-11-26T01:42:56.737Z,89.61
2018-11-26T01:43:56.758Z,89.90
2018-11-26T01:44:56.753Z,89.80
2018-11-26T01:45:56.781Z,90.00
2018-11-26T01:46:56.795Z,89.90
2018-11-26T01:47:56.794Z,89.42
2018-11-26T01:48:56.811Z,89.80
2018-11-26T01:49:56.880Z,89.71
2018-11-26T01:50:56.837Z,89.80
2018-11-26T01:51:56.857Z,89.80
2018-11-26T01:52:56.859Z,90.19
2018-11-26T01:53:56.867Z,89.80
2018-11-26T01:54:56.882Z,89.80
2018-11-26T01:55:56.901Z,89.71
2018-11-26T01:56:56.909Z,89.80
2018-11-26T01:57:56.919Z,90.00
2018-11-26T01:58:56.929Z,89.90
2018-11-26T01:59:56.944Z,89.52
2018-11-26T02:00:56.955Z,90.28
2018-11-26T02:01:56.966Z,90.37
2018-11-26T02:02:56.981Z,90.28
2018-11-26T02:03:56.994Z,90.19
2018-11-26T02:04:57.001Z,90.28
2018-11-26T02:05:57.017Z,90.28
2018-11-26T02:06:57.034Z,90.37
2018-11-26T02:07:57.048Z,90.09
2018-11-26T02:08:57.053Z,90.28
2018-11-26T02:09:57.063Z,90.37
2018-11-26T02:10:57.077Z,90.47
2018-11-26T02:11:57.089Z,90.28
2018-11-26T02:12:57.097Z,90.37
2018-11-26T02:13:57.116Z,90.09
2018-11-26T02:14:57.122Z,90.19
2018-11-26T02:15:57.141Z,90.19
2018-11-26T02:16:57.151Z,90.28
2018-11-26T02:17:57.169Z,90.28
2018-11-26T02:18:57.180Z,90.00
2018-11-26T02:19:57.185Z,90.19
2018-11-26T02:20:57.755Z,90.00
2018-11-26T02:21:57.214Z,89.90
2018-11-26T02:22:57.233Z,90.09
2018-11-26T02:23:57.234Z,90.47
2018-11-26T02:24:57.259Z,90.66
2018-11-26T02:25:57.273Z,90.47
2018-11-26T02:26:57.393Z,90.47
2018-11-26T02:27:57.287Z,90.75
2018-11-26T02:28:57.297Z,90.19
2018-11-26T02:29:57.319Z,90.37
2018-11-26T02:30:57.323Z,90.00
2018-11-26T02:31:57.335Z,90.00
2018-11-26T02:32:57.422Z,90.09
2018-11-26T02:33:57.363Z,89.90
2018-11-26T02:34:57.383Z,90.19
2018-11-26T02:35:57.385Z,90.37
2018-11-26T02:36:57.397Z,89.95
2018-11-26T02:37:57.409Z,90.33
2018-11-26T02:38:57.454Z,90.28
2018-11-26T02:39:57.437Z,89.80
2018-11-26T02:40:57.450Z,89.71
2018-11-26T02:41:57.461Z,89.61
2018-11-26T02:42:57.467Z,89.61
2018-11-26T02:43:57.485Z,89.71
2018-11-26T02:44:57.495Z,89.80
2018-11-26T02:45:57.511Z,89.61
2018-11-26T02:46:57.519Z,90.00
2018-11-26T02:47:57.543Z,89.90
2018-11-26T02:48:57.545Z,89.90
2018-11-26T02:49:57.555Z,90.19
2018-11-26T02:50:57.563Z,89.90
2018-11-26T02:51:57.579Z,89.67
2018-11-26T02:52:57.598Z,89.61
2018-11-26T02:53:57.629Z,89.86
2018-11-26T02:54:57.621Z,89.80
2018-11-26T02:55:57.629Z,90.28
2018-11-26T02:56:57.644Z,90.14
2018-11-26T02:57:57.661Z,89.80
2018-11-26T02:58:57.665Z,89.57
2018-11-26T02:59:57.675Z,89.90
2018-11-26T03:00:57.687Z,89.80
2018-11-26T03:01:57.707Z,89.80
2018-11-26T03:02:57.721Z,89.80
2018-11-26T03:03:57.725Z,89.90
2018-11-26T03:04:57.741Z,89.61
2018-11-26T03:05:57.749Z,90.19
2018-11-26T03:06:57.767Z,89.23
2018-11-26T03:07:57.779Z,89.80
2018-11-26T03:08:57.791Z,89.71
2018-11-26T03:09:57.802Z,89.90
2018-11-26T03:10:57.815Z,89.14
2018-11-26T03:11:57.836Z,89.14
2018-11-26T03:12:57.840Z,89.61
2018-11-26T03:13:57.845Z,89.80
2018-11-26T03:14:57.855Z,89.80
2018-11-26T03:15:57.881Z,89.61
2018-11-26T03:16:57.888Z,89.42
2018-11-26T03:17:57.907Z,89.42
2018-11-26T03:18:57.909Z,89.52
2018-11-26T03:19:57.925Z,90.19
2018-11-26T03:20:57.935Z,90.00
2018-11-26T03:21:57.950Z,90.19
2018-11-26T03:22:57.958Z,89.90
2018-11-26T03:23:57.971Z,89.61
2018-11-26T03:24:57.982Z,89.61
2018-11-26T03:25:57.996Z,89.61
2018-11-26T03:26:58.009Z,89.71
2018-11-26T03:27:58.018Z,89.71
2018-11-26T03:28:58.035Z,89.61
2018-11-26T03:29:58.053Z,89.71
2018-11-26T03:30:58.065Z,89.90
2018-11-26T03:31:58.074Z,89.80
2018-11-26T03:32:58.092Z,89.80
2018-11-26T03:33:58.095Z,89.90
2018-11-26T03:34:58.112Z,90.00
2018-11-26T03:35:58.114Z,89.61
2018-11-26T03:36:58.133Z,89.42
2018-11-26T03:37:58.145Z,89.42
2018-11-26T03:38:58.159Z,89.90
2018-11-26T03:39:58.173Z,90.09
2018-11-26T03:40:58.181Z,89.42
2018-11-26T03:41:58.191Z,89.61
2018-11-26T03:42:58.199Z,89.61
2018-11-26T03:43:58.218Z,89.71
2018-11-26T03:44:58.231Z,89.14
2018-11-26T03:45:58.250Z,88.67
2018-11-26T03:46:58.253Z,88.95
2018-11-26T03:47:58.266Z,88.85
2018-11-26T03:48:58.292Z,88.76
2018-11-26T03:49:58.286Z,89.14
2018-11-26T03:50:58.304Z,88.47
2018-11-26T03:51:58.310Z,88.28
2018-11-26T03:52:58.327Z,88.67
2018-11-26T03:53:58.340Z,89.23
2018-11-26T03:54:58.354Z,88.76
2018-11-26T03:55:58.362Z,88.47
2018-11-26T03:56:58.376Z,88.67
2018-11-26T03:57:58.397Z,88.67
2018-11-26T03:58:58.416Z,88.67
2018-11-26T03:59:58.416Z,88.85
2018-11-26T04:00:58.414Z,89.14
2018-11-26T04:01:58.440Z,89.04
2018-11-26T04:02:58.458Z,88.95
2018-11-26T04:03:58.465Z,89.04
2018-11-26T04:04:58.469Z,89.61
2018-11-26T04:05:58.484Z,89.71
2018-11-26T04:06:58.493Z,89.52
2018-11-26T04:07:58.514Z,89.52
2018-11-26T04:08:58.521Z,89.61
2018-11-26T04:09:58.536Z,89.61
2018-11-26T04:10:58.546Z,88.95
2018-11-26T04:11:58.561Z,89.04
2018-11-26T04:12:58.577Z,89.04
2018-11-26T04:13:58.586Z,89.33
2018-11-26T04:14:58.593Z,88.95
2018-11-26T04:15:58.613Z,88.85
2018-11-26T04:16:58.621Z,89.04
2018-11-26T04:17:58.635Z,88.95
2018-11-26T04:18:58.647Z,88.95
2018-11-26T04:19:58.664Z,89.33
2018-11-26T04:20:58.667Z,88.57
2018-11-26T04:21:58.682Z,89.23
2018-11-26T04:22:58.699Z,88.47
2018-11-26T04:23:58.705Z,88.47
2018-11-26T04:24:58.717Z,88.28
2018-11-26T04:25:58.731Z,88.57
2018-11-26T04:26:58.735Z,88.47
2018-11-26T04:27:58.758Z,88.67
2018-11-26T04:28:58.767Z,89.23
2018-11-26T04:29:58.769Z,89.23
2018-11-26T04:30:58.790Z,88.76
2018-11-26T04:31:58.800Z,89.14
2018-11-26T04:32:58.817Z,88.76
2018-11-26T04:33:58.829Z,89.23
2018-11-26T04:34:58.841Z,88.85
2018-11-26T04:35:58.940Z,88.76
2018-11-26T04:36:58.906Z,88.85
2018-11-26T04:37:58.897Z,88.85
2018-11-26T04:38:58.901Z,88.95
2018-11-26T04:39:59.758Z,89.14
2018-11-26T04:40:58.908Z,88.95
2018-11-26T04:41:58.926Z,88.95
2018-11-26T04:42:58.937Z,89.04
2018-11-26T04:43:58.956Z,88.57
2018-11-26T04:44:58.961Z,88.76
2018-11-26T04:45:58.976Z,88.85
2018-11-26T04:46:58.995Z,88.95
2018-11-26T04:47:59.002Z,88.85
2018-11-26T04:48:59.017Z,88.76
2018-11-26T04:49:59.031Z,88.67
2018-11-26T04:50:59.043Z,88.67
2018-11-26T04:51:59.048Z,88.95
2018-11-26T04:52:59.058Z,88.85
2018-11-26T04:53:59.071Z,88.95
2018-11-26T04:54:59.085Z,88.95
2018-11-26T04:55:59.102Z,88.95
2018-11-26T04:56:59.110Z,89.00
2018-11-26T04:57:59.122Z,88.95
2018-11-26T04:58:59.130Z,88.76
2018-11-26T04:59:59.152Z,88.57
2018-11-26T05:00:59.156Z,88.85
2018-11-26T05:01:59.169Z,88.95
2018-11-26T05:02:59.180Z,89.04
2018-11-26T05:03:59.197Z,88.95
2018-11-26T05:04:59.205Z,89.04
2018-11-26T05:05:59.220Z,88.76
2018-11-26T05:06:59.233Z,88.76
2018-11-26T05:07:59.244Z,88.85
2018-11-26T05:08:59.265Z,88.76
2018-11-26T05:09:59.266Z,88.76
2018-11-26T05:10:59.286Z,88.62
2018-11-26T05:11:59.295Z,88.71
2018-11-26T05:12:59.304Z,88.57
2018-11-26T05:13:59.314Z,89.00
2018-11-26T05:14:59.324Z,89.00
2018-11-26T05:15:59.343Z,89.00
2018-11-26T05:16:59.370Z,88.47
2018-11-26T05:17:59.366Z,88.62
2018-11-26T05:18:59.383Z,88.90
2018-11-26T05:19:59.394Z,88.71
2018-11-26T05:20:59.406Z,89.19
2018-11-26T05:21:59.415Z,89.09
2018-11-26T05:22:59.422Z,89.00
2018-11-26T05:23:59.438Z,88.71
2018-11-26T05:24:59.488Z,88.90
2018-11-26T05:25:59.464Z,88.81
2018-11-26T05:26:59.480Z,88.24
2018-11-26T05:27:59.489Z,88.81
2018-11-26T05:28:59.504Z,88.67
2018-11-26T05:29:59.510Z,87.86
2018-11-26T05:30:59.520Z,88.34
2018-11-26T05:31:59.536Z,88.15
2018-11-26T05:32:59.548Z,88.15
2018-11-26T05:33:59.560Z,88.34
2018-11-26T05:34:59.572Z,88.05
2018-11-26T05:35:59.586Z,88.05
2018-11-26T05:36:59.596Z,87.86
2018-11-26T05:37:59.608Z,88.05
2018-11-26T05:38:59.622Z,88.28
2018-11-26T05:39:59.632Z,88.53
2018-11-26T05:40:59.644Z,88.15
2018-11-26T05:41:59.658Z,88.62
2018-11-26T05:42:59.668Z,88.05
2018-11-26T05:43:59.686Z,88.43
2018-11-26T05:44:59.688Z,88.00
2018-11-26T05:45:59.705Z,88.34
2018-11-26T05:46:59.716Z,88.24
2018-11-26T05:47:59.724Z,88.15
2018-11-26T05:48:59.742Z,88.43
2018-11-26T05:49:59.757Z,88.34
2018-11-26T05:50:59.770Z,88.28
2018-11-26T05:51:59.776Z,88.28
2018-11-26T05:52:59.795Z,88.34
2018-11-26T05:53:59.800Z,88.15
2018-11-26T05:54:59.814Z,88.34
2018-11-26T05:55:59.826Z,88.24
2018-11-26T05:56:59.836Z,88.24
2018-11-26T05:57:59.851Z,88.34
2018-11-26T05:58:59.864Z,88.15
2018-11-26T05:59:59.874Z,88.34
2018-11-26T06:00:59.884Z,88.09
2018-11-26T06:01:59.892Z,87.95
2018-11-26T06:02:59.916Z,87.86
2018-11-26T06:03:59.924Z,88.28
2018-11-26T06:04:59.936Z,88.09
2018-11-26T06:05:59.942Z,88.43
2018-11-26T06:06:59.963Z,88.28
2018-11-26T06:07:59.973Z,88.24
2018-11-26T06:08:59.981Z,88.57
2018-11-26T06:10:00.002Z,88.53
2018-11-26T06:11:00.009Z,88.43
2018-11-26T06:12:00.024Z,88.43
2018-11-26T06:13:00.029Z,88.38
2018-11-26T06:14:00.043Z,87.95
2018-11-26T06:15:00.068Z,88.19
2018-11-26T06:16:00.070Z,88.15
2018-11-26T06:17:00.086Z,88.38
2018-11-26T06:18:00.100Z,88.53
2018-11-26T06:19:00.105Z,88.28
2018-11-26T06:20:00.132Z,88.47
2018-11-26T06:21:00.126Z,87.90
2018-11-26T06:22:00.136Z,87.62
2018-11-26T06:23:00.144Z,87.52
2018-11-26T06:24:00.165Z,87.81
2018-11-26T06:25:00.176Z,88.09
2018-11-26T06:26:00.205Z,88.00
2018-11-26T06:27:00.209Z,87.71
2018-11-26T06:28:00.217Z,87.90
2018-11-26T06:29:00.227Z,88.28
2018-11-26T06:30:00.244Z,87.90
2018-11-26T06:31:00.254Z,87.90
2018-11-26T06:32:00.259Z,87.62
2018-11-26T06:33:00.275Z,87.43
2018-11-26T06:34:00.287Z,87.81
2018-11-26T06:35:00.298Z,87.71
2018-11-26T06:36:00.313Z,87.14
2018-11-26T06:37:00.321Z,87.05
2018-11-26T06:38:00.332Z,86.95
2018-11-26T06:39:00.352Z,87.05
2018-11-26T06:40:00.362Z,87.14
2018-11-26T06:41:00.370Z,87.24
2018-11-26T06:42:00.397Z,86.76
2018-11-26T06:43:00.401Z,86.76
2018-11-26T06:44:00.411Z,86.67
2018-11-26T06:45:00.423Z,86.67
2018-11-26T06:46:00.436Z,86.47
2018-11-26T06:47:00.443Z,86.47
2018-11-26T06:48:00.472Z,86.47
2018-11-26T06:49:00.465Z,86.10
2018-11-26T06:50:00.489Z,86.47
2018-11-26T06:51:00.498Z,86.10
2018-11-26T06:52:00.504Z,86.19
2018-11-26T06:53:00.521Z,86.00
2018-11-26T06:54:00.531Z,86.47
2018-11-26T06:55:00.538Z,86.10
2018-11-26T06:56:00.553Z,86.67
2018-11-26T06:57:00.566Z,86.29
2018-11-26T06:58:00.580Z,85.91
2018-11-26T06:59:00.586Z,86.47
2018-11-26T07:00:00.607Z,86.29
2018-11-26T07:01:00.616Z,85.91
2018-11-26T07:02:00.629Z,86.86
2018-11-26T07:03:00.638Z,86.76
2018-11-26T07:04:00.646Z,86.29
2018-11-26T07:05:00.661Z,86.47
2018-11-26T07:06:00.678Z,86.67
2018-11-26T07:07:00.684Z,86.10
2018-11-26T07:08:00.701Z,86.29
2018-11-26T07:09:00.711Z,86.10
2018-11-26T07:10:00.737Z,86.29
2018-11-26T07:11:00.741Z,85.53
2018-11-26T07:12:00.752Z,85.72
2018-11-26T07:13:00.758Z,86.19
2018-11-26T07:14:00.773Z,85.81
2018-11-26T07:15:00.788Z,85.53
2018-11-26T07:16:00.797Z,85.43
2018-11-26T07:17:00.863Z,85.91
2018-11-26T07:18:00.821Z,85.81
2018-11-26T07:19:00.837Z,86.19
2018-11-26T07:20:00.841Z,85.81
2018-11-26T07:21:00.860Z,86.00
2018-11-26T07:22:00.873Z,86.10
2018-11-26T07:23:00.882Z,86.29
2018-11-26T07:24:00.899Z,86.47
2018-11-26T07:25:00.907Z,86.00
2018-11-26T07:26:00.922Z,86.10
2018-11-26T07:27:00.920Z,86.19
2018-11-26T07:28:00.940Z,86.10
2018-11-26T07:29:00.955Z,85.91
2018-11-26T07:30:00.978Z,86.10
2018-11-26T07:31:00.981Z,86.29
2018-11-26T07:32:01.001Z,86.10
2018-11-26T07:33:01.003Z,86.10
2018-11-26T07:34:01.018Z,86.19
2018-11-26T07:35:01.033Z,85.72
2018-11-26T07:36:01.047Z,86.19
2018-11-26T07:37:01.053Z,85.53
2018-11-26T07:38:01.067Z,85.53
2018-11-26T07:39:01.077Z,85.81
2018-11-26T07:40:01.099Z,85.24
2018-11-26T07:41:01.103Z,85.91
2018-11-26T07:42:01.119Z,85.81
2018-11-26T07:43:01.124Z,85.43
2018-11-26T07:44:01.170Z,85.72
2018-11-26T07:45:01.170Z,85.24
2018-11-26T07:46:01.174Z,85.91
2018-11-26T07:47:01.179Z,85.53
2018-11-26T07:48:01.192Z,85.72
2018-11-26T07:49:01.203Z,85.72
2018-11-26T07:50:01.214Z,85.81
2018-11-26T07:51:01.231Z,85.81
2018-11-26T07:52:01.241Z,85.05
2018-11-26T07:53:01.249Z,85.24
2018-11-26T07:54:01.265Z,85.91
2018-11-26T07:55:01.277Z,85.53
2018-11-26T07:56:01.289Z,85.72
2018-11-26T07:57:01.304Z,85.72
2018-11-26T07:58:01.319Z,85.43
2018-11-26T07:59:01.327Z,85.81
2018-11-26T08:00:01.333Z,85.15
2018-11-26T08:01:01.351Z,85.34
2018-11-26T08:02:01.373Z,85.15
2018-11-26T08:03:01.374Z,85.91
2018-11-26T08:04:01.388Z,85.53
2018-11-26T08:05:01.411Z,85.72
2018-11-26T08:06:02.400Z,85.81
2018-11-26T08:07:01.421Z,85.81
2018-11-26T08:08:01.437Z,85.34
2018-11-26T08:09:01.499Z,85.53
2018-11-26T08:10:01.465Z,84.95
2018-11-26T08:11:01.517Z,85.05
2018-11-26T08:12:01.486Z,85.05
2018-11-26T08:13:02.292Z,85.05
2018-11-26T08:14:01.514Z,85.15
2018-11-26T08:15:01.529Z,85.05
2018-11-26T08:16:01.538Z,85.15
2018-11-26T08:17:01.558Z,85.05
2018-11-26T08:18:01.561Z,85.05
2018-11-26T08:19:01.578Z,84.95
2018-11-26T08:20:01.589Z,84.86
2018-11-26T08:21:01.594Z,84.67
2018-11-26T08:22:01.612Z,84.48
2018-11-26T08:23:01.620Z,84.20
2018-11-26T08:24:01.643Z,83.91
2018-11-26T08:25:01.648Z,84.77
2018-11-26T08:26:01.655Z,85.15
2018-11-26T08:27:01.675Z,84.29
2018-11-26T08:28:01.686Z,85.15
2018-11-26T08:29:01.692Z,84.39
2018-11-26T08:30:01.709Z,84.77
2018-11-26T08:31:01.726Z,84.67
2018-11-26T08:32:01.735Z,84.67
2018-11-26T08:33:01.744Z,84.20
2018-11-26T08:34:01.762Z,84.20
2018-11-26T08:35:01.774Z,84.01
2018-11-26T08:36:01.780Z,84.58
2018-11-26T08:37:01.801Z,84.86
2018-11-26T08:38:01.808Z,84.58
2018-11-26T08:39:01.827Z,84.77
2018-11-26T08:40:01.833Z,84.48
2018-11-26T08:41:01.846Z,84.67
2018-11-26T08:42:01.861Z,84.39
2018-11-26T08:43:01.875Z,84.29
2018-11-26T08:44:02.798Z,84.58
2018-11-26T08:45:01.902Z,84.48
2018-11-26T08:46:02.060Z,84.48
2018-11-26T08:47:01.918Z,84.39
2018-11-26T08:48:01.939Z,84.39
2018-11-26T08:49:01.937Z,84.72
2018-11-26T08:50:01.955Z,84.67
2018-11-26T08:51:01.974Z,84.39
2018-11-26T08:52:01.990Z,84.29
2018-11-26T08:53:01.998Z,84.20
2018-11-26T08:54:02.006Z,84.29
2018-11-26T08:55:02.014Z,84.10
2018-11-26T08:56:02.037Z,84.20
2018-11-26T08:57:02.047Z,83.91
2018-11-26T08:58:02.150Z,84.52
2018-11-26T08:59:02.070Z,84.39
2018-11-26T09:00:02.107Z,84.48
2018-11-26T09:01:02.100Z,84.39
2018-11-26T09:02:02.117Z,83.62
2018-11-26T09:03:02.120Z,84.62
2018-11-26T09:04:02.132Z,84.29
2018-11-26T09:05:02.144Z,84.39
2018-11-26T09:06:02.159Z,84.33
2018-11-26T09:07:02.170Z,84.52
2018-11-26T09:08:02.183Z,83.95
2018-11-26T09:09:02.195Z,84.52
2018-11-26T09:10:02.208Z,84.52
2018-11-26T09:11:02.218Z,84.52
2018-11-26T09:12:02.237Z,84.33
2018-11-26T09:13:02.240Z,84.43
2018-11-26T09:14:02.257Z,84.24
2018-11-26T09:15:02.282Z,84.43
2018-11-26T09:16:02.285Z,84.52
2018-11-26T09:17:02.292Z,83.95
2018-11-26T09:18:02.317Z,83.95
2018-11-26T09:19:02.329Z,84.05
2018-11-26T09:20:02.338Z,84.05
2018-11-26T09:21:02.346Z,84.05
2018-11-26T09:22:02.369Z,84.01
2018-11-26T09:23:02.364Z,84.33
2018-11-26T09:24:02.388Z,83.67
2018-11-26T09:25:02.394Z,83.48
2018-11-26T09:26:02.402Z,83.67
2018-11-26T09:27:09.572Z,84.05
2018-11-26T09:28:02.434Z,83.58
2018-11-26T09:29:02.446Z,83.95
2018-11-26T09:30:02.461Z,84.14
2018-11-26T09:31:02.470Z,83.58
2018-11-26T09:32:02.482Z,83.76
2018-11-26T09:33:02.494Z,83.76
2018-11-26T09:34:02.510Z,83.86
2018-11-26T09:35:02.520Z,83.95
2018-11-26T09:36:02.537Z,83.86
2018-11-26T09:37:02.543Z,83.95
2018-11-26T09:38:02.574Z,83.67
2018-11-26T09:39:02.574Z,83.76
2018-11-26T09:40:02.594Z,83.29
2018-11-26T09:41:02.594Z,83.95
2018-11-26T09:42:02.608Z,83.29
2018-11-26T09:43:02.626Z,83.95
2018-11-26T09:44:02.635Z,83.00
2018-11-26T09:45:02.666Z,83.86
2018-11-26T09:46:02.664Z,83.48
2018-11-26T09:47:02.668Z,83.76
2018-11-26T09:48:02.674Z,83.10
2018-11-26T09:49:02.698Z,83.86
2018-11-26T09:50:02.750Z,83.76
2018-11-26T09:51:02.734Z,83.00
2018-11-26T09:52:02.730Z,83.95
2018-11-26T09:53:02.756Z,83.86
2018-11-26T09:54:02.762Z,83.86
2018-11-26T09:55:02.781Z,83.95
2018-11-26T09:56:02.789Z,83.10
2018-11-26T09:57:02.798Z,83.39
2018-11-26T09:58:02.811Z,83.48
2018-11-26T09:59:02.826Z,83.58
2018-11-26T10:00:02.839Z,83.95
2018-11-26T10:01:02.846Z,83.76
2018-11-26T10:02:02.870Z,83.29
2018-11-26T10:03:02.871Z,83.10
2018-11-26T10:04:02.887Z,82.71
2018-11-26T10:05:02.898Z,82.91
2018-11-26T10:06:02.913Z,82.91
2018-11-26T10:07:02.927Z,82.71
2018-11-26T10:08:02.940Z,82.71
2018-11-26T10:09:02.952Z,82.71
2018-11-26T10:10:02.954Z,82.71
2018-11-26T10:11:02.979Z,82.71
2018-11-26T10:12:03.014Z,82.34
2018-11-26T10:13:03.010Z,82.53
2018-11-26T10:14:03.017Z,82.91
2018-11-26T10:15:03.032Z,83.19
2018-11-26T10:16:03.045Z,82.43
2018-11-26T10:17:03.078Z,82.62
2018-11-26T10:18:03.068Z,82.81
2018-11-26T10:19:03.077Z,82.71
2018-11-26T10:20:03.175Z,82.43
2018-11-26T10:21:03.101Z,82.91
2018-11-26T10:22:03.119Z,83.10
2018-11-26T10:23:03.138Z,83.10
2018-11-26T10:24:03.170Z,82.91
2018-11-26T10:25:05.977Z,82.91
2018-11-26T10:26:03.235Z,82.62
2018-11-26T10:27:03.190Z,82.62
2018-11-26T10:28:03.206Z,83.29
2018-11-26T10:29:03.211Z,83.29
2018-11-26T10:30:03.213Z,83.19
2018-11-26T10:31:03.229Z,83.39
2018-11-26T10:32:03.244Z,83.10
2018-11-26T10:33:03.255Z,83.39
2018-11-26T10:34:03.271Z,83.10
2018-11-26T10:35:03.289Z,82.91
2018-11-26T10:36:03.301Z,82.81
2018-11-26T10:37:03.309Z,82.81
2018-11-26T10:38:03.318Z,82.71
2018-11-26T10:39:03.334Z,82.71
2018-11-26T10:40:03.347Z,82.81
2018-11-26T10:41:03.360Z,82.91
2018-11-26T10:42:03.382Z,82.91
2018-11-26T10:43:03.383Z,82.81
2018-11-26T10:44:03.385Z,82.71
2018-11-26T10:45:03.409Z,82.71
2018-11-26T10:46:03.425Z,82.91
2018-11-26T10:47:03.426Z,82.91
2018-11-26T10:48:03.462Z,82.81
2018-11-26T10:49:03.459Z,82.53
2018-11-26T10:50:03.475Z,83.10
2018-11-26T10:51:03.485Z,83.10
2018-11-26T10:52:03.497Z,82.91
2018-11-26T10:53:03.521Z,83.00
2018-11-26T10:54:03.524Z,82.53
2018-11-26T10:55:03.529Z,82.91
2018-11-26T10:56:03.559Z,83.10
2018-11-26T10:57:03.560Z,82.91
2018-11-26T10:58:03.579Z,82.71
2018-11-26T10:59:03.585Z,82.53
2018-11-26T11:00:03.596Z,82.71
2018-11-26T11:01:03.623Z,82.34
2018-11-26T11:02:03.639Z,82.24
2018-11-26T11:03:03.640Z,82.34
2018-11-26T11:04:03.650Z,82.24
2018-11-26T11:05:03.664Z,82.62
2018-11-26T11:06:03.676Z,82.62
2018-11-26T11:07:03.694Z,82.62
2018-11-26T11:08:03.710Z,82.91
2018-11-26T11:09:04.321Z,82.81
2018-11-26T11:10:03.742Z,82.43
2018-11-26T11:11:03.748Z,83.00
2018-11-26T11:12:03.758Z,82.91
2018-11-26T11:13:03.770Z,82.91
2018-11-26T11:14:03.782Z,82.81
2018-11-26T11:15:03.805Z,82.81
2018-11-26T11:16:03.804Z,83.10
2018-11-26T11:17:03.823Z,83.10
2018-11-26T11:18:03.834Z,82.62
2018-11-26T11:19:03.846Z,82.81
2018-11-26T11:20:03.864Z,82.71
2018-11-26T11:21:03.868Z,83.00
2018-11-26T11:22:03.886Z,83.39
2018-11-26T11:23:03.894Z,83.58
2018-11-26T11:24:03.912Z,83.29
2018-11-26T11:25:03.928Z,83.19
2018-11-26T11:26:03.933Z,83.39
2018-11-26T11:27:03.947Z,83.39
2018-11-26T11:28:03.963Z,83.29
2018-11-26T11:29:03.978Z,83.39
2018-11-26T11:30:03.987Z,83.39
2018-11-26T11:31:03.998Z,83.48
2018-11-26T11:32:04.012Z,83.29
2018-11-26T11:34:04.047Z,83.29
2018-11-26T11:35:04.052Z,82.71
2018-11-26T11:36:04.060Z,82.91
2018-11-26T11:37:04.072Z,83.10
2018-11-26T11:38:04.096Z,83.29
2018-11-26T11:39:04.100Z,83.48
2018-11-26T11:40:04.831Z,83.19
2018-11-26T11:41:04.144Z,83.58
2018-11-26T11:42:04.158Z,83.29
2018-11-26T11:43:04.150Z,83.58
2018-11-26T11:44:04.165Z,83.48
2018-11-26T11:45:04.184Z,83.29
2018-11-26T11:46:04.209Z,83.95
2018-11-26T11:47:04.205Z,83.48
2018-11-26T11:48:04.220Z,83.29
2018-11-26T11:49:04.227Z,83.48
2018-11-26T11:50:04.234Z,83.86
2018-11-26T11:51:04.254Z,83.19
2018-11-26T11:52:04.273Z,83.48
2018-11-26T11:53:04.276Z,83.58
2018-11-26T11:54:04.300Z,83.58
2018-11-26T11:55:04.309Z,83.95
2018-11-26T11:56:04.314Z,84.14
2018-11-26T11:57:04.342Z,83.95
2018-11-26T11:58:04.340Z,84.62
2018-11-26T11:59:04.358Z,84.24
2018-11-26T12:00:04.358Z,84.52
2018-11-26T12:01:04.385Z,85.10
2018-11-26T12:02:04.395Z,85.47
2018-11-26T12:03:04.410Z,85.47
2018-11-26T12:04:04.420Z,85.47
2018-11-26T12:05:04.433Z,85.28
2018-11-26T12:06:04.442Z,85.76
2018-11-26T12:07:04.458Z,85.86
2018-11-26T12:08:04.472Z,86.33
2018-11-26T12:09:04.496Z,86.05
2018-11-26T12:10:04.496Z,85.86
2018-11-26T12:11:04.516Z,86.33
2018-11-26T12:12:04.528Z,86.24
2018-11-26T12:13:04.543Z,86.14
2018-11-26T12:14:04.548Z,86.05
2018-11-26T12:15:04.556Z,85.95
2018-11-26T12:16:04.574Z,86.24
2018-11-26T12:17:04.588Z,85.76
2018-11-26T12:18:04.599Z,85.38
2018-11-26T12:19:04.616Z,86.05
2018-11-26T12:20:04.628Z,86.33
2018-11-26T12:21:04.634Z,86.24
2018-11-26T12:22:04.647Z,85.57
2018-11-26T12:23:04.662Z,85.86
2018-11-26T12:24:04.678Z,85.57
2018-11-26T12:25:04.688Z,86.24
2018-11-26T12:26:04.706Z,86.14
2018-11-26T12:27:04.716Z,86.33
2018-11-26T12:28:04.724Z,86.33
2018-11-26T12:29:04.738Z,86.33
2018-11-26T12:30:04.761Z,86.14
2018-11-26T12:31:04.765Z,86.33
2018-11-26T12:32:04.774Z,86.52
2018-11-26T12:33:05.244Z,86.71
2018-11-26T12:34:04.804Z,86.71
2018-11-26T12:35:04.858Z,86.33
2018-11-26T12:36:04.828Z,86.71
2018-11-26T12:37:04.845Z,87.09
2018-11-26T12:38:04.862Z,86.80
2018-11-26T12:39:04.872Z,86.24
2018-11-26T12:40:04.890Z,86.52
2018-11-26T12:41:04.890Z,86.43
2018-11-26T12:42:04.908Z,86.24
2018-11-26T12:43:04.922Z,85.95
2018-11-26T12:44:04.930Z,86.14
2018-11-26T12:45:04.946Z,85.95
2018-11-26T12:46:04.956Z,85.38
2018-11-26T12:47:04.971Z,85.95
2018-11-26T12:48:04.982Z,86.24
2018-11-26T12:49:04.996Z,86.24
2018-11-26T12:50:05.010Z,85.95
2018-11-26T12:51:05.020Z,85.57
2018-11-26T12:52:05.038Z,85.86
2018-11-26T12:53:05.050Z,85.47
2018-11-26T12:54:05.060Z,86.14